sensor_id;sensor_type;location;lat;lon;timestamp;temperature;humidity
79489;SHT31;68949;53.176;18.088;2023-04-15T00:01:37;9.63;73.32
79489;SHT31;68949;53.176;18.088;2023-04-15T00:04:04;9.64;73.64
79489;SHT31;68949;53.176;18.088;2023-04-15T00:06:31;9.62;73.68
79489;SHT31;68949;53.176;18.088;2023-04-15T00:08:57;9.60;73.78
79489;SHT31;68949;53.176;18.088;2023-04-15T00:11:24;9.59;73.77
79489;SHT31;68949;53.176;18.088;2023-04-15T00:13:51;9.58;73.97
79489;SHT31;68949;53.176;18.088;2023-04-15T00:16:17;9.57;73.93
79489;SHT31;68949;53.176;18.088;2023-04-15T00:18:44;9.55;73.90
79489;SHT31;68949;53.176;18.088;2023-04-15T00:21:11;9.52;73.93
79489;SHT31;68949;53.176;18.088;2023-04-15T00:23:37;9.48;74.23
79489;SHT31;68949;53.176;18.088;2023-04-15T00:26:04;9.47;74.67
79489;SHT31;68949;53.176;18.088;2023-04-15T00:28:31;9.49;74.42
79489;SHT31;68949;53.176;18.088;2023-04-15T00:30:57;9.47;74.56
79489;SHT31;68949;53.176;18.088;2023-04-15T00:33:24;9.47;74.56
79489;SHT31;68949;53.176;18.088;2023-04-15T00:35:51;9.46;74.80
79489;SHT31;68949;53.176;18.088;2023-04-15T00:38:19;9.45;74.96
79489;SHT31;68949;53.176;18.088;2023-04-15T00:40:45;9.44;74.86
79489;SHT31;68949;53.176;18.088;2023-04-15T00:43:12;9.43;74.89
79489;SHT31;68949;53.176;18.088;2023-04-15T00:45:39;9.41;74.96
79489;SHT31;68949;53.176;18.088;2023-04-15T00:48:06;9.40;75.07
79489;SHT31;68949;53.176;18.088;2023-04-15T00:50:34;9.40;75.24
79489;SHT31;68949;53.176;18.088;2023-04-15T00:53:01;9.42;75.20
79489;SHT31;68949;53.176;18.088;2023-04-15T00:55:28;9.43;75.11
79489;SHT31;68949;53.176;18.088;2023-04-15T00:57:55;9.46;75.22
79489;SHT31;68949;53.176;18.088;2023-04-15T01:00:23;9.49;75.17
79489;SHT31;68949;53.176;18.088;2023-04-15T01:02:50;9.51;75.01
79489;SHT31;68949;53.176;18.088;2023-04-15T01:05:16;9.52;75.09
79489;SHT31;68949;53.176;18.088;2023-04-15T01:07:45;9.53;75.18
79489;SHT31;68949;53.176;18.088;2023-04-15T01:10:13;9.56;75.14
79489;SHT31;68949;53.176;18.088;2023-04-15T01:12:41;9.59;75.11
79489;SHT31;68949;53.176;18.088;2023-04-15T01:15:08;9.62;75.06
79489;SHT31;68949;53.176;18.088;2023-04-15T01:17:36;9.64;75.04
79489;SHT31;68949;53.176;18.088;2023-04-15T01:20:07;9.66;75.06
79489;SHT31;68949;53.176;18.088;2023-04-15T01:22:37;9.66;75.00
79489;SHT31;68949;53.176;18.088;2023-04-15T01:25:11;9.66;74.98
79489;SHT31;68949;53.176;18.088;2023-04-15T01:27:42;9.65;74.88
79489;SHT31;68949;53.176;18.088;2023-04-15T01:30:09;9.67;74.98
79489;SHT31;68949;53.176;18.088;2023-04-15T01:32:36;9.67;74.92
79489;SHT31;68949;53.176;18.088;2023-04-15T01:35:03;9.67;74.99
79489;SHT31;68949;53.176;18.088;2023-04-15T01:37:30;9.65;74.92
79489;SHT31;68949;53.176;18.088;2023-04-15T01:39:58;9.64;75.04
79489;SHT31;68949;53.176;18.088;2023-04-15T01:42:25;9.64;75.03
79489;SHT31;68949;53.176;18.088;2023-04-15T01:44:52;9.64;75.05
79489;SHT31;68949;53.176;18.088;2023-04-15T01:47:20;9.63;75.07
79489;SHT31;68949;53.176;18.088;2023-04-15T01:49:47;9.62;75.19
79489;SHT31;68949;53.176;18.088;2023-04-15T01:52:14;9.61;75.24
79489;SHT31;68949;53.176;18.088;2023-04-15T01:54:41;9.61;75.40
79489;SHT31;68949;53.176;18.088;2023-04-15T01:57:07;9.60;75.34
79489;SHT31;68949;53.176;18.088;2023-04-15T01:59:35;9.60;75.29
79489;SHT31;68949;53.176;18.088;2023-04-15T02:02:02;9.60;75.30
79489;SHT31;68949;53.176;18.088;2023-04-15T02:04:29;9.60;75.33
79489;SHT31;68949;53.176;18.088;2023-04-15T02:06:59;9.60;75.36
79489;SHT31;68949;53.176;18.088;2023-04-15T02:09:27;9.58;75.39
79489;SHT31;68949;53.176;18.088;2023-04-15T02:11:53;9.60;75.34
79489;SHT31;68949;53.176;18.088;2023-04-15T02:14:20;9.61;75.36
79489;SHT31;68949;53.176;18.088;2023-04-15T02:16:47;9.64;75.25
79489;SHT31;68949;53.176;18.088;2023-04-15T02:19:14;9.63;75.30
79489;SHT31;68949;53.176;18.088;2023-04-15T02:21:41;9.62;75.32
79489;SHT31;68949;53.176;18.088;2023-04-15T02:24:07;9.63;75.32
79489;SHT31;68949;53.176;18.088;2023-04-15T02:26:34;9.65;75.33
79489;SHT31;68949;53.176;18.088;2023-04-15T02:29:01;9.67;75.34
79489;SHT31;68949;53.176;18.088;2023-04-15T02:31:28;9.69;75.26
79489;SHT31;68949;53.176;18.088;2023-04-15T02:33:55;9.69;75.30
79489;SHT31;68949;53.176;18.088;2023-04-15T02:36:21;9.71;75.27
79489;SHT31;68949;53.176;18.088;2023-04-15T02:38:49;9.72;75.24
79489;SHT31;68949;53.176;18.088;2023-04-15T02:41:16;9.73;75.24
79489;SHT31;68949;53.176;18.088;2023-04-15T02:43:44;9.73;75.17
79489;SHT31;68949;53.176;18.088;2023-04-15T02:46:12;9.74;75.18
79489;SHT31;68949;53.176;18.088;2023-04-15T02:48:40;9.75;75.21
79489;SHT31;68949;53.176;18.088;2023-04-15T02:51:15;9.76;75.28
79489;SHT31;68949;53.176;18.088;2023-04-15T02:53:45;9.77;75.30
79489;SHT31;68949;53.176;18.088;2023-04-15T02:56:14;9.79;75.18
79489;SHT31;68949;53.176;18.088;2023-04-15T02:58:42;9.81;75.23
79489;SHT31;68949;53.176;18.088;2023-04-15T03:01:11;9.81;75.28
79489;SHT31;68949;53.176;18.088;2023-04-15T03:03:38;9.80;75.34
79489;SHT31;68949;53.176;18.088;2023-04-15T03:06:05;9.81;75.26
79489;SHT31;68949;53.176;18.088;2023-04-15T03:08:32;9.82;75.25
79489;SHT31;68949;53.176;18.088;2023-04-15T03:10:59;9.84;75.27
79489;SHT31;68949;53.176;18.088;2023-04-15T03:13:27;9.86;75.16
79489;SHT31;68949;53.176;18.088;2023-04-15T03:15:55;9.87;75.22
79489;SHT31;68949;53.176;18.088;2023-04-15T03:18:22;9.85;75.21
79489;SHT31;68949;53.176;18.088;2023-04-15T03:20:49;9.86;75.28
79489;SHT31;68949;53.176;18.088;2023-04-15T03:23:16;9.86;75.34
79489;SHT31;68949;53.176;18.088;2023-04-15T03:25:43;9.86;75.30
79489;SHT31;68949;53.176;18.088;2023-04-15T03:28:10;9.86;75.34
79489;SHT31;68949;53.176;18.088;2023-04-15T03:30:37;9.86;75.32
79489;SHT31;68949;53.176;18.088;2023-04-15T03:33:04;9.84;75.26
79489;SHT31;68949;53.176;18.088;2023-04-15T03:35:32;9.85;75.35
79489;SHT31;68949;53.176;18.088;2023-04-15T03:37:58;9.85;75.24
79489;SHT31;68949;53.176;18.088;2023-04-15T03:40:25;9.87;75.37
79489;SHT31;68949;53.176;18.088;2023-04-15T03:42:52;9.88;75.28
79489;SHT31;68949;53.176;18.088;2023-04-15T03:45:19;9.87;75.28
79489;SHT31;68949;53.176;18.088;2023-04-15T03:47:45;9.86;75.46
79489;SHT31;68949;53.176;18.088;2023-04-15T03:50:12;9.87;75.41
79489;SHT31;68949;53.176;18.088;2023-04-15T03:52:39;9.89;75.42
79489;SHT31;68949;53.176;18.088;2023-04-15T03:55:06;9.90;75.37
79489;SHT31;68949;53.176;18.088;2023-04-15T03:57:33;9.90;75.41
79489;SHT31;68949;53.176;18.088;2023-04-15T04:00:04;9.90;75.46
79489;SHT31;68949;53.176;18.088;2023-04-15T04:02:38;9.89;75.53
79489;SHT31;68949;53.176;18.088;2023-04-15T04:05:05;9.89;75.51
79489;SHT31;68949;53.176;18.088;2023-04-15T04:07:31;9.89;75.49
79489;SHT31;68949;53.176;18.088;2023-04-15T04:09:58;9.91;75.43
79489;SHT31;68949;53.176;18.088;2023-04-15T04:12:25;9.93;75.41
79489;SHT31;68949;53.176;18.088;2023-04-15T04:14:51;9.95;75.41
79489;SHT31;68949;53.176;18.088;2023-04-15T04:17:18;9.95;75.41
79489;SHT31;68949;53.176;18.088;2023-04-15T04:19:44;9.96;75.36
79489;SHT31;68949;53.176;18.088;2023-04-15T04:22:11;9.98;75.30
79489;SHT31;68949;53.176;18.088;2023-04-15T04:24:38;10.01;75.31
79489;SHT31;68949;53.176;18.088;2023-04-15T04:27:05;10.00;75.41
79489;SHT31;68949;53.176;18.088;2023-04-15T04:29:31;9.99;75.29
79489;SHT31;68949;53.176;18.088;2023-04-15T04:31:58;10.01;75.28
79489;SHT31;68949;53.176;18.088;2023-04-15T04:34:24;10.02;75.22
79489;SHT31;68949;53.176;18.088;2023-04-15T04:36:51;10.05;75.23
79489;SHT31;68949;53.176;18.088;2023-04-15T04:39:18;10.06;75.19
79489;SHT31;68949;53.176;18.088;2023-04-15T04:41:45;10.07;75.23
79489;SHT31;68949;53.176;18.088;2023-04-15T04:44:12;10.08;75.21
79489;SHT31;68949;53.176;18.088;2023-04-15T04:46:38;10.06;75.17
79489;SHT31;68949;53.176;18.088;2023-04-15T04:49:05;10.08;75.16
79489;SHT31;68949;53.176;18.088;2023-04-15T04:51:32;10.11;75.18
79489;SHT31;68949;53.176;18.088;2023-04-15T04:53:58;10.15;75.10
79489;SHT31;68949;53.176;18.088;2023-04-15T04:56:25;10.16;75.01
79489;SHT31;68949;53.176;18.088;2023-04-15T04:58:52;10.17;74.98
79489;SHT31;68949;53.176;18.088;2023-04-15T05:01:19;10.17;74.98
79489;SHT31;68949;53.176;18.088;2023-04-15T05:03:46;10.19;75.12
79489;SHT31;68949;53.176;18.088;2023-04-15T05:06:12;10.20;74.94
79489;SHT31;68949;53.176;18.088;2023-04-15T05:08:39;10.23;74.95
79489;SHT31;68949;53.176;18.088;2023-04-15T05:11:06;10.24;74.81
79489;SHT31;68949;53.176;18.088;2023-04-15T05:13:33;10.26;74.76
79489;SHT31;68949;53.176;18.088;2023-04-15T05:15:59;10.26;74.77
79489;SHT31;68949;53.176;18.088;2023-04-15T05:18:26;10.26;74.79
79489;SHT31;68949;53.176;18.088;2023-04-15T05:20:53;10.25;74.83
79489;SHT31;68949;53.176;18.088;2023-04-15T05:23:19;10.26;74.82
79489;SHT31;68949;53.176;18.088;2023-04-15T05:25:46;10.29;74.78
79489;SHT31;68949;53.176;18.088;2023-04-15T05:28:13;10.29;74.77
79489;SHT31;68949;53.176;18.088;2023-04-15T05:30:39;10.30;74.78
79489;SHT31;68949;53.176;18.088;2023-04-15T05:33:06;10.29;74.84
79489;SHT31;68949;53.176;18.088;2023-04-15T05:35:34;10.28;74.91
79489;SHT31;68949;53.176;18.088;2023-04-15T05:38:00;10.30;74.93
79489;SHT31;68949;53.176;18.088;2023-04-15T05:40:27;10.29;74.93
79489;SHT31;68949;53.176;18.088;2023-04-15T05:42:55;10.31;74.93
79489;SHT31;68949;53.176;18.088;2023-04-15T05:45:22;10.30;75.11
79489;SHT31;68949;53.176;18.088;2023-04-15T05:47:50;10.28;75.22
79489;SHT31;68949;53.176;18.088;2023-04-15T05:50:21;10.28;75.56
79489;SHT31;68949;53.176;18.088;2023-04-15T05:52:48;10.27;75.96
79489;SHT31;68949;53.176;18.088;2023-04-15T05:55:19;10.27;75.83
79489;SHT31;68949;53.176;18.088;2023-04-15T05:57:46;10.25;76.25
79489;SHT31;68949;53.176;18.088;2023-04-15T06:00:13;10.18;76.97
79489;SHT31;68949;53.176;18.088;2023-04-15T06:02:40;10.13;77.56
79489;SHT31;68949;53.176;18.088;2023-04-15T06:05:07;10.09;78.09
79489;SHT31;68949;53.176;18.088;2023-04-15T06:07:36;10.03;78.73
79489;SHT31;68949;53.176;18.088;2023-04-15T06:10:04;9.94;79.55
79489;SHT31;68949;53.176;18.088;2023-04-15T06:12:32;9.87;80.02
79489;SHT31;68949;53.176;18.088;2023-04-15T06:14:59;9.81;80.15
79489;SHT31;68949;53.176;18.088;2023-04-15T06:17:26;9.76;80.43
79489;SHT31;68949;53.176;18.088;2023-04-15T06:19:53;9.74;80.67
79489;SHT31;68949;53.176;18.088;2023-04-15T06:22:22;9.73;80.81
79489;SHT31;68949;53.176;18.088;2023-04-15T06:24:50;9.72;81.20
79489;SHT31;68949;53.176;18.088;2023-04-15T06:27:16;9.70;81.15
79489;SHT31;68949;53.176;18.088;2023-04-15T06:29:44;9.69;81.25
79489;SHT31;68949;53.176;18.088;2023-04-15T06:32:11;9.66;81.58
79489;SHT31;68949;53.176;18.088;2023-04-15T06:34:38;9.62;81.84
79489;SHT31;68949;53.176;18.088;2023-04-15T06:37:05;9.57;82.42
79489;SHT31;68949;53.176;18.088;2023-04-15T06:39:31;9.54;82.24
79489;SHT31;68949;53.176;18.088;2023-04-15T06:41:58;9.54;82.42
79489;SHT31;68949;53.176;18.088;2023-04-15T06:44:25;9.55;82.56
79489;SHT31;68949;53.176;18.088;2023-04-15T06:46:51;9.56;82.54
79489;SHT31;68949;53.176;18.088;2023-04-15T06:49:18;9.56;82.65
79489;SHT31;68949;53.176;18.088;2023-04-15T06:51:45;9.56;82.80
79489;SHT31;68949;53.176;18.088;2023-04-15T06:54:12;9.54;82.83
79489;SHT31;68949;53.176;18.088;2023-04-15T06:56:38;9.57;82.93
79489;SHT31;68949;53.176;18.088;2023-04-15T06:59:05;9.54;83.08
79489;SHT31;68949;53.176;18.088;2023-04-15T07:01:32;9.53;83.30
79489;SHT31;68949;53.176;18.088;2023-04-15T07:03:58;9.54;83.22
79489;SHT31;68949;53.176;18.088;2023-04-15T07:06:25;9.54;83.44
79489;SHT31;68949;53.176;18.088;2023-04-15T07:08:52;9.55;83.60
79489;SHT31;68949;53.176;18.088;2023-04-15T07:11:21;9.54;83.92
79489;SHT31;68949;53.176;18.088;2023-04-15T07:13:47;9.54;83.75
79489;SHT31;68949;53.176;18.088;2023-04-15T07:16:14;9.53;83.74
79489;SHT31;68949;53.176;18.088;2023-04-15T07:18:41;9.52;84.06
79489;SHT31;68949;53.176;18.088;2023-04-15T07:21:07;9.50;84.26
79489;SHT31;68949;53.176;18.088;2023-04-15T07:23:34;9.49;84.50
79489;SHT31;68949;53.176;18.088;2023-04-15T07:26:01;9.48;84.66
79489;SHT31;68949;53.176;18.088;2023-04-15T07:28:29;9.48;84.66
79489;SHT31;68949;53.176;18.088;2023-04-15T07:30:56;9.48;84.85
79489;SHT31;68949;53.176;18.088;2023-04-15T07:33:23;9.46;84.90
79489;SHT31;68949;53.176;18.088;2023-04-15T07:35:50;9.44;85.29
79489;SHT31;68949;53.176;18.088;2023-04-15T07:38:17;9.43;85.47
79489;SHT31;68949;53.176;18.088;2023-04-15T07:40:45;9.41;85.66
79489;SHT31;68949;53.176;18.088;2023-04-15T07:43:12;9.42;85.73
79489;SHT31;68949;53.176;18.088;2023-04-15T07:45:39;9.42;85.59
79489;SHT31;68949;53.176;18.088;2023-04-15T07:48:06;9.45;85.58
79489;SHT31;68949;53.176;18.088;2023-04-15T07:50:33;9.44;85.68
79489;SHT31;68949;53.176;18.088;2023-04-15T07:53:00;9.46;85.73
79489;SHT31;68949;53.176;18.088;2023-04-15T07:55:26;9.47;85.55
79489;SHT31;68949;53.176;18.088;2023-04-15T07:57:53;9.47;85.73
79489;SHT31;68949;53.176;18.088;2023-04-15T08:00:20;9.50;85.73
79489;SHT31;68949;53.176;18.088;2023-04-15T08:02:47;9.52;85.77
79489;SHT31;68949;53.176;18.088;2023-04-15T08:05:15;9.52;85.87
79489;SHT31;68949;53.176;18.088;2023-04-15T08:07:41;9.52;85.83
79489;SHT31;68949;53.176;18.088;2023-04-15T08:10:08;9.53;85.77
79489;SHT31;68949;53.176;18.088;2023-04-15T08:12:35;9.56;85.85
79489;SHT31;68949;53.176;18.088;2023-04-15T08:15:02;9.57;85.60
79489;SHT31;68949;53.176;18.088;2023-04-15T08:17:30;9.60;85.44
79489;SHT31;68949;53.176;18.088;2023-04-15T08:19:56;9.62;85.59
79489;SHT31;68949;53.176;18.088;2023-04-15T08:22:23;9.65;85.48
79489;SHT31;68949;53.176;18.088;2023-04-15T08:24:49;9.66;85.42
79489;SHT31;68949;53.176;18.088;2023-04-15T08:27:16;9.69;85.47
79489;SHT31;68949;53.176;18.088;2023-04-15T08:29:43;9.69;85.46
79489;SHT31;68949;53.176;18.088;2023-04-15T08:32:11;9.70;85.43
79489;SHT31;68949;53.176;18.088;2023-04-15T08:34:37;9.71;85.32
79489;SHT31;68949;53.176;18.088;2023-04-15T08:37:04;9.72;85.31
79489;SHT31;68949;53.176;18.088;2023-04-15T08:39:31;9.76;85.19
79489;SHT31;68949;53.176;18.088;2023-04-15T08:42:02;9.78;85.18
79489;SHT31;68949;53.176;18.088;2023-04-15T08:44:34;9.79;85.04
79489;SHT31;68949;53.176;18.088;2023-04-15T08:47:06;9.76;85.15
79489;SHT31;68949;53.176;18.088;2023-04-15T08:49:35;9.76;85.18
79489;SHT31;68949;53.176;18.088;2023-04-15T08:52:07;9.78;85.15
79489;SHT31;68949;53.176;18.088;2023-04-15T08:54:34;9.81;85.09
79489;SHT31;68949;53.176;18.088;2023-04-15T08:57:03;9.82;85.07
79489;SHT31;68949;53.176;18.088;2023-04-15T08:59:30;9.86;85.09
79489;SHT31;68949;53.176;18.088;2023-04-15T09:01:57;9.89;84.99
79489;SHT31;68949;53.176;18.088;2023-04-15T09:04:24;9.93;84.99
79489;SHT31;68949;53.176;18.088;2023-04-15T09:06:51;9.99;84.92
79489;SHT31;68949;53.176;18.088;2023-04-15T09:09:18;10.03;84.91
79489;SHT31;68949;53.176;18.088;2023-04-15T09:11:44;10.06;84.73
79489;SHT31;68949;53.176;18.088;2023-04-15T09:14:11;10.09;84.71
79489;SHT31;68949;53.176;18.088;2023-04-15T09:19:30;10.14;84.67
79489;SHT31;68949;53.176;18.088;2023-04-15T09:21:59;10.14;84.61
79489;SHT31;68949;53.176;18.088;2023-04-15T09:24:35;10.17;84.55
79489;SHT31;68949;53.176;18.088;2023-04-15T09:27:04;10.19;84.57
79489;SHT31;68949;53.176;18.088;2023-04-15T09:29:32;10.19;84.56
79489;SHT31;68949;53.176;18.088;2023-04-15T09:32:12;10.22;84.51
79489;SHT31;68949;53.176;18.088;2023-04-15T09:34:41;10.24;84.40
79489;SHT31;68949;53.176;18.088;2023-04-15T09:37:08;10.27;84.47
79489;SHT31;68949;53.176;18.088;2023-04-15T09:39:46;10.27;84.35
79489;SHT31;68949;53.176;18.088;2023-04-15T09:42:15;10.33;84.23
79489;SHT31;68949;53.176;18.088;2023-04-15T09:44:49;10.42;84.26
79489;SHT31;68949;53.176;18.088;2023-04-15T09:47:30;10.46;83.93
79489;SHT31;68949;53.176;18.088;2023-04-15T09:49:57;10.48;83.92
79489;SHT31;68949;53.176;18.088;2023-04-15T09:52:26;10.52;83.96
79489;SHT31;68949;53.176;18.088;2023-04-15T09:54:54;10.53;83.90
79489;SHT31;68949;53.176;18.088;2023-04-15T09:57:24;10.55;83.76
79489;SHT31;68949;53.176;18.088;2023-04-15T09:59:51;10.53;83.61
79489;SHT31;68949;53.176;18.088;2023-04-15T10:02:18;10.51;83.50
79489;SHT31;68949;53.176;18.088;2023-04-15T10:04:48;10.49;83.62
79489;SHT31;68949;53.176;18.088;2023-04-15T10:07:17;10.53;83.67
79489;SHT31;68949;53.176;18.088;2023-04-15T10:09:47;10.53;83.81
79489;SHT31;68949;53.176;18.088;2023-04-15T10:12:18;10.59;83.81
79489;SHT31;68949;53.176;18.088;2023-04-15T10:14:47;10.61;83.78
79489;SHT31;68949;53.176;18.088;2023-04-15T10:17:21;10.64;83.73
79489;SHT31;68949;53.176;18.088;2023-04-15T10:19:53;10.67;83.65
79489;SHT31;68949;53.176;18.088;2023-04-15T10:22:21;10.66;83.54
79489;SHT31;68949;53.176;18.088;2023-04-15T10:24:49;10.65;83.60
79489;SHT31;68949;53.176;18.088;2023-04-15T10:27:18;10.68;83.63
79489;SHT31;68949;53.176;18.088;2023-04-15T10:29:47;10.68;83.53
79489;SHT31;68949;53.176;18.088;2023-04-15T10:32:19;10.66;83.62
79489;SHT31;68949;53.176;18.088;2023-04-15T10:34:47;10.65;83.71
79489;SHT31;68949;53.176;18.088;2023-04-15T10:37:19;10.63;83.75
79489;SHT31;68949;53.176;18.088;2023-04-15T10:40:15;10.61;83.70
79489;SHT31;68949;53.176;18.088;2023-04-15T10:42:58;10.62;83.61
79489;SHT31;68949;53.176;18.088;2023-04-15T10:45:32;10.63;83.66
79489;SHT31;68949;53.176;18.088;2023-04-15T10:48:06;10.65;83.43
79489;SHT31;68949;53.176;18.088;2023-04-15T10:50:34;10.68;83.59
79489;SHT31;68949;53.176;18.088;2023-04-15T10:53:03;10.70;83.57
79489;SHT31;68949;53.176;18.088;2023-04-15T10:55:31;10.72;83.36
79489;SHT31;68949;53.176;18.088;2023-04-15T10:58:01;10.74;83.38
79489;SHT31;68949;53.176;18.088;2023-04-15T11:00:29;10.76;83.47
79489;SHT31;68949;53.176;18.088;2023-04-15T11:02:58;10.78;83.40
79489;SHT31;68949;53.176;18.088;2023-04-15T11:08:14;10.82;83.48
79489;SHT31;68949;53.176;18.088;2023-04-15T11:18:13;10.84;83.64
79489;SHT31;68949;53.176;18.088;2023-04-15T11:20:52;10.87;83.60
79489;SHT31;68949;53.176;18.088;2023-04-15T11:23:37;10.87;83.63
79489;SHT31;68949;53.176;18.088;2023-04-15T11:26:09;10.85;83.78
79489;SHT31;68949;53.176;18.088;2023-04-15T11:28:40;10.84;83.70
79489;SHT31;68949;53.176;18.088;2023-04-15T11:31:13;10.82;83.79
79489;SHT31;68949;53.176;18.088;2023-04-15T11:33:54;10.81;83.94
79489;SHT31;68949;53.176;18.088;2023-04-15T11:36:25;10.77;84.03
79489;SHT31;68949;53.176;18.088;2023-04-15T11:38:53;10.75;84.15
79489;SHT31;68949;53.176;18.088;2023-04-15T11:41:22;10.76;84.27
79489;SHT31;68949;53.176;18.088;2023-04-15T11:43:49;10.76;84.26
79489;SHT31;68949;53.176;18.088;2023-04-15T11:46:17;10.75;84.25
79489;SHT31;68949;53.176;18.088;2023-04-15T11:48:45;10.72;84.44
79489;SHT31;68949;53.176;18.088;2023-04-15T11:51:12;10.68;84.68
79489;SHT31;68949;53.176;18.088;2023-04-15T11:53:40;10.66;84.78
79489;SHT31;68949;53.176;18.088;2023-04-15T11:56:16;10.67;84.71
79489;SHT31;68949;53.176;18.088;2023-04-15T11:58:47;10.65;84.60
79489;SHT31;68949;53.176;18.088;2023-04-15T12:01:18;10.61;84.88
79489;SHT31;68949;53.176;18.088;2023-04-15T12:03:45;10.57;85.00
79489;SHT31;68949;53.176;18.088;2023-04-15T12:06:23;10.54;84.84
79489;SHT31;68949;53.176;18.088;2023-04-15T12:11:45;10.55;85.02
79489;SHT31;68949;53.176;18.088;2023-04-15T12:14:30;10.56;84.99
79489;SHT31;68949;53.176;18.088;2023-04-15T12:16:59;10.56;84.85
79489;SHT31;68949;53.176;18.088;2023-04-15T12:19:29;10.58;84.90
79489;SHT31;68949;53.176;18.088;2023-04-15T12:22:05;10.58;84.79
79489;SHT31;68949;53.176;18.088;2023-04-15T12:24:37;10.56;84.92
79489;SHT31;68949;53.176;18.088;2023-04-15T12:27:05;10.56;85.11
79489;SHT31;68949;53.176;18.088;2023-04-15T12:29:35;10.54;85.08
79489;SHT31;68949;53.176;18.088;2023-04-15T12:34:43;10.52;85.31
79489;SHT31;68949;53.176;18.088;2023-04-15T12:37:16;10.56;85.30
79489;SHT31;68949;53.176;18.088;2023-04-15T12:39:44;10.58;85.27
79489;SHT31;68949;53.176;18.088;2023-04-15T12:42:14;10.61;85.41
79489;SHT31;68949;53.176;18.088;2023-04-15T12:44:43;10.66;85.33
79489;SHT31;68949;53.176;18.088;2023-04-15T12:47:09;10.68;85.22
79489;SHT31;68949;53.176;18.088;2023-04-15T12:49:37;10.70;85.27
79489;SHT31;68949;53.176;18.088;2023-04-15T12:52:04;10.73;85.22
79489;SHT31;68949;53.176;18.088;2023-04-15T12:54:32;10.77;85.08
79489;SHT31;68949;53.176;18.088;2023-04-15T12:56:59;10.80;85.06
79489;SHT31;68949;53.176;18.088;2023-04-15T12:59:26;10.84;84.93
79489;SHT31;68949;53.176;18.088;2023-04-15T13:01:54;10.87;84.95
79489;SHT31;68949;53.176;18.088;2023-04-15T13:04:21;10.83;85.07
79489;SHT31;68949;53.176;18.088;2023-04-15T13:06:48;10.80;85.09
79489;SHT31;68949;53.176;18.088;2023-04-15T13:09:15;10.80;85.07
79489;SHT31;68949;53.176;18.088;2023-04-15T13:11:42;10.79;85.17
79489;SHT31;68949;53.176;18.088;2023-04-15T13:14:09;10.80;85.03
79489;SHT31;68949;53.176;18.088;2023-04-15T13:16:39;10.81;85.17
79489;SHT31;68949;53.176;18.088;2023-04-15T13:19:06;10.85;85.21
79489;SHT31;68949;53.176;18.088;2023-04-15T13:21:33;10.88;85.21
79489;SHT31;68949;53.176;18.088;2023-04-15T13:24:00;10.89;85.05
79489;SHT31;68949;53.176;18.088;2023-04-15T13:26:28;10.90;85.09
79489;SHT31;68949;53.176;18.088;2023-04-15T13:28:54;10.89;85.14
79489;SHT31;68949;53.176;18.088;2023-04-15T13:31:21;10.86;85.17
79489;SHT31;68949;53.176;18.088;2023-04-15T13:33:48;10.81;85.09
79489;SHT31;68949;53.176;18.088;2023-04-15T13:36:15;10.76;85.16
79489;SHT31;68949;53.176;18.088;2023-04-15T13:38:41;10.71;85.35
79489;SHT31;68949;53.176;18.088;2023-04-15T13:41:08;10.70;85.29
79489;SHT31;68949;53.176;18.088;2023-04-15T13:43:35;10.68;85.35
79489;SHT31;68949;53.176;18.088;2023-04-15T13:46:01;10.65;85.48
79489;SHT31;68949;53.176;18.088;2023-04-15T13:48:28;10.62;85.51
79489;SHT31;68949;53.176;18.088;2023-04-15T13:50:55;10.60;85.51
79489;SHT31;68949;53.176;18.088;2023-04-15T13:53:22;10.59;85.49
79489;SHT31;68949;53.176;18.088;2023-04-15T13:55:48;10.58;85.54
79489;SHT31;68949;53.176;18.088;2023-04-15T13:58:15;10.56;85.53
79489;SHT31;68949;53.176;18.088;2023-04-15T14:00:42;10.53;85.50
79489;SHT31;68949;53.176;18.088;2023-04-15T14:03:08;10.51;85.59
79489;SHT31;68949;53.176;18.088;2023-04-15T14:05:35;10.51;85.57
79489;SHT31;68949;53.176;18.088;2023-04-15T14:08:03;10.52;85.72
79489;SHT31;68949;53.176;18.088;2023-04-15T14:10:29;10.53;85.73
79489;SHT31;68949;53.176;18.088;2023-04-15T14:12:56;10.55;85.69
79489;SHT31;68949;53.176;18.088;2023-04-15T14:15:23;10.57;85.57
79489;SHT31;68949;53.176;18.088;2023-04-15T14:17:49;10.58;85.63
79489;SHT31;68949;53.176;18.088;2023-04-15T14:20:16;10.63;85.60
79489;SHT31;68949;53.176;18.088;2023-04-15T14:22:43;10.68;85.59
79489;SHT31;68949;53.176;18.088;2023-04-15T14:25:10;10.69;85.52
79489;SHT31;68949;53.176;18.088;2023-04-15T14:27:36;10.68;85.48
79489;SHT31;68949;53.176;18.088;2023-04-15T14:30:03;10.67;85.56
79489;SHT31;68949;53.176;18.088;2023-04-15T14:32:31;10.64;85.62
79489;SHT31;68949;53.176;18.088;2023-04-15T14:34:58;10.60;85.67
79489;SHT31;68949;53.176;18.088;2023-04-15T14:37:24;10.56;85.93
79489;SHT31;68949;53.176;18.088;2023-04-15T14:39:52;10.55;85.99
79489;SHT31;68949;53.176;18.088;2023-04-15T14:42:19;10.47;86.27
79489;SHT31;68949;53.176;18.088;2023-04-15T14:44:46;10.42;86.46
79489;SHT31;68949;53.176;18.088;2023-04-15T14:47:13;10.38;86.64
79489;SHT31;68949;53.176;18.088;2023-04-15T14:49:40;10.36;86.68
79489;SHT31;68949;53.176;18.088;2023-04-15T14:52:10;10.34;86.61
79489;SHT31;68949;53.176;18.088;2023-04-15T14:54:37;10.38;86.56
79489;SHT31;68949;53.176;18.088;2023-04-15T14:57:04;10.44;86.56
79489;SHT31;68949;53.176;18.088;2023-04-15T14:59:31;10.50;86.62
79489;SHT31;68949;53.176;18.088;2023-04-15T15:01:58;10.55;86.63
79489;SHT31;68949;53.176;18.088;2023-04-15T15:04:24;10.57;86.51
79489;SHT31;68949;53.176;18.088;2023-04-15T15:06:51;10.61;86.36
79489;SHT31;68949;53.176;18.088;2023-04-15T15:09:18;10.61;86.19
79489;SHT31;68949;53.176;18.088;2023-04-15T15:11:45;10.59;86.27
79489;SHT31;68949;53.176;18.088;2023-04-15T15:14:11;10.57;86.29
79489;SHT31;68949;53.176;18.088;2023-04-15T15:16:38;10.54;86.24
79489;SHT31;68949;53.176;18.088;2023-04-15T15:19:05;10.52;86.38
79489;SHT31;68949;53.176;18.088;2023-04-15T15:21:32;10.53;86.48
79489;SHT31;68949;53.176;18.088;2023-04-15T15:23:59;10.52;86.53
79489;SHT31;68949;53.176;18.088;2023-04-15T15:26:26;10.51;86.43
79489;SHT31;68949;53.176;18.088;2023-04-15T15:28:53;10.51;86.46
79489;SHT31;68949;53.176;18.088;2023-04-15T15:31:20;10.49;86.55
79489;SHT31;68949;53.176;18.088;2023-04-15T15:33:46;10.49;86.61
79489;SHT31;68949;53.176;18.088;2023-04-15T15:36:13;10.47;86.64
79489;SHT31;68949;53.176;18.088;2023-04-15T15:38:41;10.44;86.81
79489;SHT31;68949;53.176;18.088;2023-04-15T15:41:08;10.39;86.73
79489;SHT31;68949;53.176;18.088;2023-04-15T15:43:34;10.35;86.99
79489;SHT31;68949;53.176;18.088;2023-04-15T15:46:02;10.33;87.00